Time;durP1;ratioP1;P1;durP2;ratioP2;P2;SDS_P1;SDS_P2;PMS_P1;PMS_P2;Temp;Humidity;BMP_temperature;BMP_pressure;BME280_temperature;BME280_humidity;BME280_pressure;Samples;Min_cycle;Max_cycle;Signal;HPM_P1;HPM_P2
2022/12/15 00:41:01;;;;;;;7.50;5.10;;;;;;;-1.46;77.58;98040.91;105411;1300;62485;-24
2022/12/15 00:43:31;;;;;;;11.00;7.00;;;;;;;-1.23;77.57;98029.77;105520;1291;75183;-24
2022/12/15 00:48:55;;;;;;;8.80;5.50;;;;;;;-0.83;75.47;98013.30;105288;1301;73159;-24
2022/12/15 01:24:08;;;;;;;10.00;6.10;;;;;;;-1.06;77.00;97981.58;99179;1329;599595;-26
2022/12/15 01:26:35;;;;;;;33.10;7.00;;;;;;;-1.32;77.64;97970.74;104943;1302;60539;-25
2022/12/15 01:29:02;;;;;;;11.00;6.30;;;;;;;-1.41;78.30;97956.23;104962;1304;60263;-26
2022/12/15 01:31:29;;;;;;;10.00;6.30;;;;;;;-0.99;78.04;97953.25;104956;1305;73965;-25
2022/12/15 01:33:56;;;;;;;9.10;6.30;;;;;;;-0.86;76.96;97942.70;104934;1303;76354;-25
2022/12/15 01:36:23;;;;;;;11.80;7.20;;;;;;;-0.97;76.90;97947.67;104931;1309;74559;-25
2022/12/15 01:38:50;;;;;;;7.80;5.80;;;;;;;-1.14;77.61;97937.64;104430;1301;1177574;-25
2022/12/15 01:41:20;;;;;;;11.50;4.50;;;;;;;-1.35;78.25;97946.89;105247;1288;61519;-25
2022/12/15 01:43:47;;;;;;;8.00;6.30;;;;;;;-1.33;78.85;97942.55;105227;1302;74520;-25
2022/12/15 01:46:19;;;;;;;7.70;4.90;;;;;;;-0.90;77.92;97950.94;105217;1302;75998;-25
2022/12/15 01:49:13;;;;;;;7.90;5.10;;;;;;;-0.79;77.43;97940.61;105045;1304;73893;-25
2022/12/15 01:51:41;;;;;;;;;;;;;;;-0.96;77.54;97923.43;104902;1303;60646;-25
2022/12/15 01:54:39;;;;;;;13.90;7.90;;;;;;;-1.23;78.49;97921.95;105063;1304;61035;-25
2022/12/15 01:57:08;;;;;;;14.70;7.70;;;;;;;-1.39;79.32;97920.70;105356;1300;75152;-25
2022/12/15 01:59:37;;;;;;;12.70;7.80;;;;;;;-1.02;78.64;97931.77;105107;1294;74508;-25
2022/12/15 02:02:04;;;;;;;11.20;6.50;;;;;;;-0.84;77.95;97934.23;105338;1300;73724;-25
2022/12/15 02:04:31;;;;;;;7.40;5.30;;;;;;;-0.96;77.89;97929.39;105344;1302;60353;-25
2022/12/15 02:06:58;;;;;;;15.40;8.40;;;;;;;-1.12;78.34;97927.66;105331;1300;62473;-25
2022/12/15 02:09:25;;;;;;;9.30;6.60;;;;;;;-1.34;79.29;97918.56;105426;1299;74206;-25
2022/12/15 02:12:20;;;;;;;9.50;6.70;;;;;;;-1.14;79.61;97935.26;105388;1300;76286;-25
2022/12/15 02:14:59;;;;;;;15.20;8.50;;;;;;;-0.85;78.47;97937.69;105485;1298;73723;-25
2022/12/15 02:17:38;;;;;;;9.40;6.00;;;;;;;-0.89;78.34;97943.52;105081;1303;61661;-25
2022/12/15 02:20:29;;;;;;;8.70;5.90;;;;;;;-1.05;78.72;97932.98;105316;1299;61174;-25
2022/12/15 02:23:32;;;;;;;8.80;6.20;;;;;;;-1.27;79.31;97921.98;105124;1299;75224;-25
2022/12/15 02:26:18;;;;;;;8.50;5.90;;;;;;;-0.79;79.02;97929.58;105183;1301;76714;-25
2022/12/15 02:29:12;;;;;;;10.80;6.40;;;;;;;-0.63;77.63;97927.36;105201;1301;74766;-25
2022/12/15 02:31:52;;;;;;;11.00;5.80;;;;;;;-0.82;78.00;97930.55;105217;1302;61443;-25
2022/12/15 02:34:32;;;;;;;13.00;7.80;;;;;;;-1.00;79.10;97932.55;105063;1303;62535;-25
2022/12/15 02:37:15;;;;;;;11.20;5.80;;;;;;;-1.19;79.65;97931.29;105318;1299;75207;-25
2022/12/15 02:39:42;;;;;;;10.60;5.30;;;;;;;-0.82;79.76;97938.23;105293;1301;75547;-25
2022/12/15 02:42:09;;;;;;;12.00;7.40;;;;;;;-0.57;78.68;97926.70;105199;1301;72930;-25
2022/12/15 02:44:51;;;;;;;10.00;6.50;;;;;;;-0.70;78.95;97925.30;105379;1300;61664;-25
2022/12/15 02:47:44;;;;;;;9.10;5.70;;;;;;;-0.86;79.46;97926.70;105106;1297;62532;-25
2022/12/15 02:50:17;;;;;;;13.00;5.80;;;;;;;-1.01;80.20;97925.77;105353;1302;75122;-25
2022/12/15 02:52:46;;;;;;;7.80;5.00;;;;;;;-0.93;80.92;97915.09;105118;1301;76319;-25
2022/12/15 02:55:37;;;;;;;10.70;6.50;;;;;;;-0.46;79.72;97915.88;105332;1302;74079;-25
2022/12/15 02:58:06;;;;;;;9.90;6.00;;;;;;;-0.44;79.38;97910.83;105290;1302;59394;-25
2022/12/15 03:00:37;;;;;;;8.40;6.30;;;;;;;-0.64;79.94;97904.05;105277;1301;62169;-25
2022/12/15 03:03:04;;;;;;;12.10;6.80;;;;;;;-0.86;81.48;97900.94;105036;1302;73933;-25
2022/12/15 03:05:31;;;;;;;17.50;7.80;;;;;;;-0.87;82.37;97891.12;105280;1302;76135;-25
2022/12/15 03:08:00;;;;;;;8.70;6.40;;;;;;;-0.55;81.77;97891.46;105059;1309;73692;-25
2022/12/15 03:10:26;;;;;;;9.90;7.00;;;;;;;-0.45;81.30;97893.80;105314;1290;61654;-25
2022/12/15 03:12:53;;;;;;;10.80;6.20;;;;;;;-0.58;81.72;97894.87;105347;1301;61172;-25
2022/12/15 03:15:20;;;;;;;9.50;5.60;;;;;;;-0.77;82.53;97897.56;105301;1300;75358;-25
2022/12/15 03:17:47;;;;;;;9.50;6.60;;;;;;;-0.72;83.17;97889.84;105128;1310;76735;-25
2022/12/15 03:20:14;;;;;;;10.20;5.10;;;;;;;-0.35;82.19;97870.59;105103;1303;73550;-25
2022/12/15 03:22:41;;;;;;;7.10;5.30;;;;;;;-0.33;81.64;97870.33;105310;1297;60293;-25
2022/12/15 03:25:08;;;;;;;13.10;6.80;;;;;;;-0.54;82.26;97874.52;105096;1305;61417;-25
2022/12/15 03:27:36;;;;;;;6.90;5.10;;;;;;;-0.74;83.47;97871.54;105118;1304;73628;-25
2022/12/15 03:30:04;;;;;;;9.10;6.70;;;;;;;-0.54;83.74;97877.27;105283;1301;76311;-25
2022/12/15 03:32:31;;;;;;;8.30;5.70;;;;;;;-0.37;83.14;97876.99;105192;1292;74513;-24
2022/12/15 03:34:59;;;;;;;14.50;9.70;;;;;;;-0.39;82.87;97867.59;105342;1301;60438;-25
2022/12/15 03:37:26;;;;;;;8.90;5.60;;;;;;;-0.64;83.59;97860.26;105339;1300;61153;-25
2022/12/15 03:39:54;;;;;;;8.70;5.90;;;;;;;-0.66;84.45;97858.29;105263;1299;75278;-25
2022/12/15 03:42:47;;;;;;;8.80;5.50;;;;;;;-0.34;83.69;97864.73;105574;1293;76897;-25
2022/12/15 03:45:08;;;;;;;9.30;5.30;;;;;;;-0.33;83.14;97854.61;105716;1293;74878;-25
2022/12/15 03:47:38;;;;;;;11.50;5.10;;;;;;;-0.55;83.71;97848.48;105708;1300;61236;-25
2022/12/15 03:50:05;;;;;;;9.90;6.30;;;;;;;-0.65;84.47;97862.34;105722;1293;61243;-25
2022/12/15 03:52:32;;;;;;;10.00;7.40;;;;;;;-0.35;83.96;97863.40;105851;1293;75001;-25
2022/12/15 03:54:59;;;;;;;7.20;5.00;;;;;;;-0.25;83.30;97859.65;105884;1292;75453;-24
2022/12/15 03:57:26;;;;;;;13.10;7.60;;;;;;;-0.38;83.40;97853.36;105779;1292;74922;-25
2022/12/15 03:59:53;;;;;;;9.50;5.90;;;;;;;-0.61;84.09;97838.28;105878;1292;60433;-25
2022/12/15 04:02:19;;;;;;;7.00;4.70;;;;;;;-0.47;84.42;97836.47;105896;1290;59998;-25
2022/12/15 04:04:47;;;;;;;12.30;7.70;;;;;;;-0.17;83.74;97845.87;105766;1291;74284;-25
2022/12/15 04:07:14;;;;;;;7.50;4.80;;;;;;;-0.28;83.44;97832.84;105887;1292;74789;-25
2022/12/15 04:09:41;;;;;;;6.30;4.00;;;;;;;-0.47;84.18;97848.72;105863;1292;74745;-25
2022/12/15 04:12:09;;;;;;;7.60;5.00;;;;;;;-0.55;84.95;97849.34;105732;1293;61529;-25
2022/12/15 04:14:41;;;;;;;6.50;4.70;;;;;;;-0.16;84.12;97850.13;105761;1292;62196;-25
2022/12/15 04:17:08;;;;;;;12.30;6.30;;;;;;;-0.10;83.47;97855.37;105754;1288;74203;-27
2022/12/15 04:22:21;;;;;;;9.20;6.00;;;;;;;-0.47;84.73;97855.55;105744;1295;74778;-25
2022/12/15 05:33:59;;;;;;;7.90;4.30;;;;;;;-0.05;83.51;97838.52;105663;1297;59258;-25
2022/12/15 05:36:32;;;;;;;6.80;4.90;;;;;;;0.19;83.89;97836.66;105679;1297;62138;-25
2022/12/15 05:38:58;;;;;;;7.00;5.00;;;;;;;0.57;82.41;97843.70;105664;1297;74838;-25
2022/12/15 05:41:25;;;;;;;6.10;4.20;;;;;;;0.58;81.98;97841.88;105680;1293;76346;-25
2022/12/15 05:43:52;;;;;;;8.80;4.80;;;;;;;0.40;82.38;97847.93;105715;1293;72863;-25
2022/12/15 05:46:19;;;;;;;7.50;4.10;;;;;;;0.21;83.09;97852.44;105635;1296;61733;-25
2022/12/15 05:48:46;;;;;;;9.50;5.60;;;;;;;0.16;83.87;97852.16;105652;1292;61051;-25
2022/12/15 05:51:13;;;;;;;8.50;5.50;;;;;;;0.57;83.27;97853.54;105689;1292;76204;-25
2022/12/15 05:53:41;;;;;;;6.70;4.40;;;;;;;0.74;82.48;97861.45;105591;1293;75613;-25
2022/12/15 05:56:12;;;;;;;6.90;4.40;;;;;;;0.61;82.52;97864.92;105686;1292;74997;-25
2022/12/15 05:58:39;;;;;;;8.30;4.10;;;;;;;0.42;83.20;97867.60;105584;1295;61887;-25
2022/12/15 06:01:13;;;;;;;7.20;4.10;;;;;;;0.26;83.88;97872.45;105600;1297;62392;-25
2022/12/15 06:03:40;;;;;;;6.40;4.50;;;;;;;0.48;84.25;97870.85;105592;1296;75842;-25
2022/12/15 06:06:07;;;;;;;8.70;5.30;;;;;;;0.93;82.99;97875.36;105717;1292;75331;-25
2022/12/15 06:08:36;;;;;;;9.30;6.00;;;;;;;1.02;82.34;97878.76;105708;1294;74794;-25
2022/12/15 06:11:03;;;;;;;7.10;4.90;;;;;;;0.85;82.72;97882.67;105502;1303;60346;-25
2022/12/15 06:13:30;;;;;;;7.10;3.90;;;;;;;0.63;83.20;97883.92;105682;1297;61203;-25
2022/12/15 06:15:59;;;;;;;7.10;4.10;;;;;;;0.49;84.28;97882.23;105585;1296;74767;-25
2022/12/15 06:18:29;;;;;;;7.20;4.90;;;;;;;0.89;83.87;97881.20;105571;1294;75753;-25
2022/12/15 06:21:00;;;;;;;6.40;4.20;;;;;;;1.12;83.05;97886.35;105600;1297;74748;-25
2022/12/15 06:23:27;;;;;;;7.00;4.40;;;;;;;1.03;82.94;97884.52;105533;1298;60346;-25
2022/12/15 06:25:55;;;;;;;6.40;5.00;;;;;;;0.83;83.38;97883.99;105561;1289;61190;-24
2022/12/15 06:28:23;;;;;;;3.90;3.40;;;;;;;0.64;84.37;97884.41;105562;1295;74942;-25
2022/12/15 06:30:52;;;;;;;7.70;4.00;;;;;;;0.94;84.45;97891.51;105645;1295;76211;-25
2022/12/15 06:33:19;;;;;;;6.60;4.10;;;;;;;1.24;83.31;97895.49;105357;1305;73806;-25
2022/12/15 06:35:47;;;;;;;4.70;3.20;;;;;;;1.21;82.99;97900.85;105404;1290;62204;-25
2022/12/15 06:38:14;;;;;;;6.50;4.00;;;;;;;1.04;83.40;97905.13;105442;1299;58754;-25
2022/12/15 06:40:41;;;;;;;9.50;5.50;;;;;;;0.85;84.10;97910.87;105626;1289;74114;-25
2022/12/15 06:43:08;;;;;;;8.90;3.80;;;;;;;1.02;84.51;97915.98;105584;1297;76098;-25
2022/12/15 06:45:35;;;;;;;5.30;3.60;;;;;;;1.43;83.46;97923.59;105645;1295;73421;-25
2022/12/15 06:48:02;;;;;;;6.80;4.40;;;;;;;1.47;82.82;97928.49;105558;1296;62550;-26
2022/12/15 06:50:30;;;;;;;6.90;3.40;;;;;;;1.23;83.34;97926.73;105545;1296;62329;-25
2022/12/15 06:52:57;;;;;;;11.60;4.70;;;;;;;1.05;84.08;97930.68;105639;1296;74154;-24
2022/12/15 06:55:24;;;;;;;2.90;2.00;;;;;;;1.02;84.54;97932.59;105416;1296;75355;-25
2022/12/15 06:57:51;;;;;;;6.50;3.30;;;;;;;1.45;83.95;97937.18;105602;1289;73694;-25
2022/12/15 07:00:18;;;;;;;4.40;3.00;;;;;;;1.66;83.01;97936.09;105500;1298;61188;-25
2022/12/15 07:02:45;;;;;;;5.60;3.70;;;;;;;1.55;82.90;97944.58;105563;1297;62197;-25
2022/12/15 07:05:16;;;;;;;5.20;3.40;;;;;;;1.36;83.41;97948.00;105673;1295;74943;-24
2022/12/15 07:07:43;;;;;;;3.80;2.80;;;;;;;1.18;84.16;97954.70;105627;1292;75009;-24
2022/12/15 07:10:10;;;;;;;4.70;2.80;;;;;;;1.43;84.59;97952.52;105633;1295;75259;-25
2022/12/15 07:12:37;;;;;;;7.60;4.30;;;;;;;1.91;83.32;97959.85;105577;1297;61354;-25
2022/12/15 07:15:05;;;;;;;5.20;4.00;;;;;;;1.89;82.99;97961.48;105633;1289;61213;-25
2022/12/15 07:17:36;;;;;;;7.80;5.70;;;;;;;1.70;83.80;97963.32;105547;1289;74620;-25
2022/12/15 07:20:04;;;;;;;5.30;3.40;;;;;;;1.53;85.06;97969.51;105439;1295;76741;-25
2022/12/15 07:22:31;;;;;;;7.80;4.30;;;;;;;1.66;85.54;97973.87;105393;1300;73360;-26
2022/12/15 07:25:00;;;;;;;6.80;4.50;;;;;;;2.04;84.39;97973.77;105665;1298;59969;-28
2022/12/15 07:27:27;;;;;;;6.10;4.10;;;;;;;2.01;84.44;97973.20;105609;1295;60434;-28
2022/12/15 07:29:55;;;;;;;6.40;3.80;;;;;;;1.91;84.81;97973.36;105601;1297;74236;-28
2022/12/15 07:32:22;;;;;;;5.80;3.60;;;;;;;1.71;85.71;97978.34;105588;1290;76367;-25
2022/12/15 07:34:49;;;;;;;5.70;4.20;;;;;;;1.94;85.60;97980.86;105588;1295;74578;-25
2022/12/15 07:37:17;;;;;;;9.40;4.50;;;;;;;2.02;85.28;97977.64;105676;1298;62412;-25
2022/12/15 07:39:44;;;;;;;9.30;4.90;;;;;;;2.02;85.28;97986.20;105621;1297;61432;-24
2022/12/15 07:42:11;;;;;;;6.40;3.60;;;;;;;1.88;85.44;97994.60;105616;1297;75937;-24
2022/12/15 07:44:38;;;;;;;5.70;3.30;;;;;;;1.87;86.01;97998.95;105619;1287;76693;-24
2022/12/15 07:47:05;;;;;;;5.60;3.40;;;;;;;2.21;85.50;98002.14;105611;1297;73922;-24
2022/12/15 07:49:32;;;;;;;10.20;4.70;;;;;;;2.20;84.98;98003.70;105537;1296;62607;-24
2022/12/15 07:51:59;;;;;;;5.70;3.80;;;;;;;2.10;85.21;98008.29;105516;1297;61556;-22
2022/12/15 07:54:26;;;;;;;5.80;4.30;;;;;;;1.93;85.82;98008.51;105595;1295;75666;-22
2022/12/15 07:56:53;;;;;;;5.00;3.50;;;;;;;1.94;86.39;98011.69;105562;1296;74967;-22
2022/12/15 07:59:20;;;;;;;9.80;6.00;;;;;;;2.27;85.73;98026.02;105542;1283;75057;-22
2022/12/15 08:01:48;;;;;;;6.80;4.60;;;;;;;2.29;85.08;98020.29;105538;1288;62618;-21
2022/12/15 08:04:16;;;;;;;10.60;6.90;;;;;;;2.17;85.51;98031.29;105631;1296;60015;-22
2022/12/15 08:06:43;;;;;;;5.00;3.40;;;;;;;2.03;85.79;98034.05;105551;1289;76085;-21
2022/12/15 08:09:11;;;;;;;6.10;4.20;;;;;;;2.20;85.81;98037.92;105534;1296;75422;-21
2022/12/15 08:11:38;;;;;;;7.90;4.70;;;;;;;2.43;84.93;98040.98;105533;1290;74813;-21
2022/12/15 08:14:05;;;;;;;5.80;3.50;;;;;;;2.42;84.63;98045.68;105690;1295;62474;-21
2022/12/15 08:16:42;;;;;;;7.70;4.60;;;;;;;2.18;85.58;98048.23;105575;1297;61379;-21
2022/12/15 08:19:12;;;;;;;7.70;4.50;;;;;;;1.97;86.71;98054.80;105410;1300;75835;-21
2022/12/15 08:21:42;;;;;;;7.60;4.90;;;;;;;2.22;86.71;98060.11;105423;1292;76445;-22
2022/12/15 08:24:12;;;;;;;4.50;3.60;;;;;;;2.52;85.16;98062.52;105554;1289;73118;-21
2022/12/15 08:26:41;;;;;;;6.00;4.20;;;;;;;2.42;85.14;98059.51;105495;1300;62692;-21
2022/12/15 08:29:13;;;;;;;6.00;4.10;;;;;;;2.23;85.86;98066.20;105571;1296;61056;-21
2022/12/15 08:32:03;;;;;;;6.80;4.20;;;;;;;2.22;86.39;98070.57;105501;1296;75766;-22
2022/12/15 08:34:34;;;;;;;5.50;3.50;;;;;;;2.71;85.14;98071.75;105514;1297;76299;-24
2022/12/15 08:37:03;;;;;;;9.40;5.90;;;;;;;2.74;84.37;98068.45;105508;1295;74789;-24
2022/12/15 08:39:32;;;;;;;6.00;4.00;;;;;;;2.59;84.93;98078.67;105515;1289;61385;-24
2022/12/15 08:42:02;;;;;;;8.10;5.00;;;;;;;2.33;85.93;98076.00;105457;1296;60874;-24
2022/12/15 08:44:33;;;;;;;4.00;2.70;;;;;;;2.27;86.52;98076.39;105449;1300;75728;-24
2022/12/15 08:47:01;;;;;;;8.00;4.80;;;;;;;2.68;85.58;98078.27;105413;1300;76319;-25
2022/12/15 08:49:31;;;;;;;6.00;4.70;;;;;;;2.83;84.39;98076.79;105435;1297;74764;-24
2022/12/15 08:52:00;;;;;;;9.20;4.60;;;;;;;2.76;84.57;98069.85;105513;1297;60666;-24
2022/12/15 08:54:29;;;;;;;13.70;6.30;;;;;;;2.62;85.01;98071.65;105451;1296;62458;-24
2022/12/15 08:56:58;;;;;;;4.30;3.40;;;;;;;2.45;85.69;98065.64;105533;1297;76057;-24
2022/12/15 08:59:26;;;;;;;6.60;4.00;;;;;;;2.56;85.93;98064.00;105453;1296;76331;-25
2022/12/15 09:01:57;;;;;;;4.70;3.00;;;;;;;2.90;84.60;98068.63;105499;1297;74724;-24
2022/12/15 09:04:26;;;;;;;11.90;4.50;;;;;;;2.94;84.31;98070.23;105443;1296;62325;-24
2022/12/15 09:06:56;;;;;;;9.10;5.70;;;;;;;2.79;84.37;98072.95;105554;1290;61095;-24
2022/12/15 09:09:26;;;;;;;5.20;3.90;;;;;;;2.61;85.30;98072.40;105460;1292;75073;-24
2022/12/15 09:11:55;;;;;;;7.40;4.50;;;;;;;2.59;85.72;98073.69;105515;1293;75694;-24
2022/12/15 09:14:24;;;;;;;7.30;5.50;;;;;;;3.05;84.86;98074.69;105423;1295;74680;-24
2022/12/15 09:24:31;;;;;;;13.90;7.10;;;;;;;2.68;85.25;98084.63;99252;1328;599407;-23
2022/12/15 09:27:02;;;;;;;9.70;5.40;;;;;;;3.00;84.95;98088.92;101610;1300;62919;-24
2022/12/15 09:29:29;;;;;;;15.20;8.00;;;;;;;3.16;84.01;98090.79;101496;1307;61968;-24
2022/12/15 09:31:56;;;;;;;11.60;7.10;;;;;;;3.19;83.49;98095.39;101517;1307;73725;-24
2022/12/15 09:36:14;;;;;;;5.90;4.70;;;;;;;2.92;83.98;98093.00;99254;1333;600581;-24
2022/12/15 09:38:41;;;;;;;9.70;5.40;;;;;;;2.91;84.57;98091.86;101285;1312;62526;-24
2022/12/15 09:41:14;;;;;;;11.60;6.70;;;;;;;3.32;83.39;98095.23;101264;1313;62788;-27
2022/12/15 09:44:05;;;;;;;9.40;6.40;;;;;;;3.38;82.94;98094.82;101287;1314;73561;-27
2022/12/15 09:46:35;;;;;;;12.70;7.40;;;;;;;3.23;83.06;98098.21;101349;1305;76643;-28
2022/12/15 09:49:08;;;;;;;7.60;5.20;;;;;;;2.90;83.95;98100.84;100305;1306;1455971;-27
2022/12/15 09:51:41;;;;;;;6.70;4.10;;;;;;;2.74;84.85;98109.91;101305;1305;62375;-28
2022/12/15 09:54:09;;;;;;;5.00;3.90;;;;;;;2.88;85.28;98105.30;101364;1308;61746;-25
2022/12/15 09:56:46;;;;;;;11.80;6.10;;;;;;;3.10;84.60;98106.77;101566;1305;75236;-24
2022/12/15 09:59:53;;;;;;;9.90;5.20;;;;;;;3.15;83.71;98109.73;101485;1302;76702;-25
2022/12/15 10:02:25;;;;;;;6.40;3.50;;;;;;;2.75;85.13;98113.80;101587;1307;75290;-24
2022/12/15 10:05:02;;;;;;;10.60;6.80;;;;;;;2.84;85.35;98111.52;101694;1308;63910;-24
2022/12/15 10:07:33;;;;;;;8.20;5.80;;;;;;;3.35;84.23;98116.61;101860;1302;61530;-25
2022/12/15 10:10:08;;;;;;;9.90;5.70;;;;;;;3.52;83.00;98115.51;101960;1302;75294;-26
2022/12/15 10:12:36;;;;;;;9.20;5.30;;;;;;;3.30;83.00;98116.13;101915;1305;76778;-25
2022/12/15 10:15:39;;;;;;;7.40;4.50;;;;;;;3.02;84.00;98119.96;102109;1302;74058;-26
2022/12/15 10:18:19;;;;;;;7.00;4.50;;;;;;;3.14;84.06;98125.04;102012;1305;63797;-24
2022/12/15 10:20:46;;;;;;;7.00;4.70;;;;;;;3.63;82.90;98126.46;101865;1305;62785;-24
2022/12/15 10:23:16;;;;;;;6.80;4.70;;;;;;;3.62;82.00;98123.58;102079;1298;73506;-24
2022/12/15 10:25:47;;;;;;;5.90;4.30;;;;;;;3.41;82.42;98126.89;102169;1302;76511;-24
2022/12/15 10:28:23;;;;;;;7.10;4.20;;;;;;;3.16;83.20;98129.05;101856;1305;74994;-25
2022/12/15 10:30:53;;;;;;;6.10;4.10;;;;;;;2.84;84.55;98129.20;101903;1305;61732;-25
2022/12/15 10:33:34;;;;;;;11.60;6.10;;;;;;;3.17;84.41;98124.85;102040;1297;62811;-24
2022/12/15 10:36:07;;;;;;;6.50;4.60;;;;;;;3.66;82.51;98122.98;101899;1305;75547;-25
2022/12/15 10:38:41;;;;;;;9.30;4.80;;;;;;;3.70;81.84;98130.62;101882;1305;76764;-25
2022/12/15 10:41:10;;;;;;;6.30;5.10;;;;;;;3.55;81.97;98136.10;102035;1298;74976;-25
2022/12/15 10:43:39;;;;;;;7.50;4.70;;;;;;;3.33;82.45;98140.27;101887;1308;61145;-25
2022/12/15 10:46:13;;;;;;;9.00;4.30;;;;;;;3.15;82.94;98136.45;101894;1298;61189;-25
2022/12/15 10:48:44;;;;;;;4.40;2.80;;;;;;;3.18;83.38;98137.63;101980;1303;74188;-25
2022/12/15 10:51:25;;;;;;;7.30;3.80;;;;;;;3.84;82.42;98136.19;101798;1305;76995;-25
2022/12/15 10:54:03;;;;;;;5.90;3.60;;;;;;;4.09;80.92;98145.45;101515;1299;73921;-25
2022/12/15 10:56:32;;;;;;;7.70;4.00;;;;;;;3.93;80.53;98148.83;101832;1304;61931;-25
2022/12/15 10:59:02;;;;;;;5.20;3.60;;;;;;;3.60;81.07;98153.59;101982;1305;61930;-24
2022/12/15 11:01:31;;;;;;;6.00;3.80;;;;;;;3.35;81.98;98161.61;101955;1298;74565;-25
2022/12/15 11:03:58;;;;;;;4.80;2.80;;;;;;;3.10;82.87;98166.96;102132;1297;75801;-25
2022/12/15 11:06:28;;;;;;;4.10;3.10;;;;;;;3.32;83.06;98166.39;102117;1297;74959;-25
2022/12/15 11:08:56;;;;;;;5.40;3.90;;;;;;;3.77;81.45;98165.52;101921;1304;62599;-25
2022/12/15 11:14:19;;;;;;;5.10;3.80;;;;;;;3.61;80.91;98163.83;102325;1294;75765;-25
2022/12/15 11:16:57;;;;;;;6.40;4.20;;;;;;;3.33;81.42;98169.90;102125;1300;76602;-25
2022/12/15 11:19:45;;;;;;;4.70;3.50;;;;;;;3.09;82.23;98177.86;101953;1302;75096;-25
2022/12/15 11:22:23;;;;;;;5.00;3.70;;;;;;;3.13;82.68;98183.77;102116;1301;62691;-26
2022/12/15 11:24:56;;;;;;;4.10;3.10;;;;;;;3.65;81.42;98184.14;101959;1304;62836;-25
2022/12/15 11:27:32;;;;;;;5.40;3.70;;;;;;;3.78;80.39;98192.21;102006;1297;75581;-24
2022/12/15 11:30:16;;;;;;;4.60;3.00;;;;;;;3.46;80.37;98196.20;101914;1302;75674;-23
2022/12/15 11:32:46;;;;;;;4.90;3.70;;;;;;;3.17;81.38;98204.23;102008;1295;73148;-24
2022/12/15 11:35:17;;;;;;;6.10;4.00;;;;;;;2.97;81.83;98200.39;102094;1300;61153;-23
2022/12/15 11:37:48;;;;;;;5.80;3.80;;;;;;;2.82;82.97;98202.52;102108;1302;62718;-23
2022/12/15 11:40:41;;;;;;;5.10;3.10;;;;;;;3.34;82.09;98206.26;102129;1302;75529;-24
2022/12/15 11:43:27;;;;;;;4.80;3.90;;;;;;;3.64;80.50;98207.74;102178;1302;76526;-24
2022/12/15 11:46:15;;;;;;;7.30;4.00;;;;;;;3.48;80.48;98216.30;102215;1294;74368;-24
2022/12/15 11:49:03;;;;;;;5.20;3.80;;;;;;;3.24;81.20;98221.33;102130;1303;62818;-24
2022/12/15 11:51:41;;;;;;;6.60;4.30;;;;;;;2.89;82.16;98219.38;102119;1303;62894;-24
2022/12/15 11:54:23;;;;;;;7.00;4.20;;;;;;;2.66;83.10;98220.30;102094;1294;75520;-24
2022/12/15 11:57:28;;;;;;;6.30;4.00;;;;;;;2.69;83.44;98217.01;102118;1301;74954;-23
2022/12/15 11:59:55;;;;;;;3.80;2.90;;;;;;;3.34;81.55;98225.29;102288;1292;74167;-24
2022/12/15 12:02:55;;;;;;;4.50;3.40;;;;;;;3.36;80.57;98221.36;102181;1298;62757;-24
2022/12/15 12:05:28;;;;;;;6.70;4.00;;;;;;;3.11;81.05;98219.52;102209;1295;62883;-25
2022/12/15 12:08:11;;;;;;;6.50;4.60;;;;;;;2.90;81.60;98219.86;102085;1300;75652;-24
2022/12/15 12:11:03;;;;;;;6.00;3.70;;;;;;;2.66;82.29;98220.85;101983;1300;76572;-23
2022/12/15 12:13:55;;;;;;;5.40;3.50;;;;;;;2.53;83.09;98227.44;102139;1302;74971;-25
2022/12/15 12:16:41;;;;;;;4.20;3.30;;;;;;;3.12;81.85;98233.55;102122;1294;62734;-24
2022/12/15 12:19:10;;;;;;;5.20;3.80;;;;;;;3.34;80.54;98231.45;102217;1301;61832;-23
2022/12/15 12:21:40;;;;;;;5.70;3.90;;;;;;;3.25;80.38;98233.91;102117;1298;75623;-25
2022/12/15 12:24:14;;;;;;;6.80;4.20;;;;;;;3.01;80.54;98233.36;102211;1297;75708;-23
2022/12/15 12:26:53;;;;;;;8.10;5.60;;;;;;;2.73;81.10;98230.48;101890;1299;73194;-23
2022/12/15 12:29:54;;;;;;;5.90;3.70;;;;;;;2.55;81.83;98231.95;102059;1302;62618;-23
2022/12/15 12:32:43;;;;;;;5.60;3.80;;;;;;;3.03;81.28;98243.71;101966;1302;62856;-23
2022/12/15 12:35:28;;;;;;;6.00;4.20;;;;;;;3.27;80.20;98254.40;101995;1297;75549;-26
2022/12/15 12:38:04;;;;;;;7.80;5.00;;;;;;;3.11;79.94;98260.69;102355;1300;76751;-25
2022/12/15 12:40:52;;;;;;;7.00;5.10;;;;;;;2.85;80.41;98264.02;102203;1302;73847;-25
2022/12/15 12:43:31;;;;;;;7.30;5.20;;;;;;;2.61;81.37;98269.29;102345;1302;62306;-24
2022/12/15 12:46:04;;;;;;;8.40;5.20;;;;;;;2.36;82.21;98266.48;102162;1299;61631;-26
2022/12/15 12:48:40;;;;;;;6.20;4.00;;;;;;;2.57;82.31;98268.16;102191;1300;74316;-26
2022/12/15 12:51:33;;;;;;;6.50;4.40;;;;;;;3.13;80.51;98265.89;102084;1301;76701;-23
2022/12/15 12:54:00;;;;;;;8.10;4.80;;;;;;;3.25;79.38;98270.48;102044;1294;74222;-23
2022/12/15 12:56:43;;;;;;;8.40;5.80;;;;;;;3.04;79.65;98275.86;102036;1303;61234;-23
2022/12/15 12:59:29;;;;;;;9.70;5.60;;;;;;;2.73;80.51;98278.33;102103;1299;61654;-23
2022/12/15 13:02:24;;;;;;;11.90;6.30;;;;;;;2.47;81.37;98279.52;102192;1297;74576;-23
2022/12/15 13:05:26;;;;;;;6.90;5.00;;;;;;;2.22;82.20;98283.09;102326;1292;76611;-23
2022/12/15 13:07:54;;;;;;;10.50;6.00;;;;;;;2.55;82.19;98289.39;102288;1302;75260;-23
2022/12/15 13:10:23;;;;;;;8.40;5.70;;;;;;;2.97;80.53;98291.95;102337;1299;62887;-23
2022/12/15 13:12:54;;;;;;;9.70;6.00;;;;;;;2.95;79.81;98296.69;102108;1299;61565;-23
2022/12/15 13:15:39;;;;;;;10.60;6.20;;;;;;;2.73;80.22;98292.17;102314;1302;74613;-23
2022/12/15 13:18:14;;;;;;;7.70;5.50;;;;;;;2.47;80.91;98295.11;102081;1302;75615;-23
2022/12/15 13:20:41;;;;;;;7.50;5.40;;;;;;;2.23;81.77;98296.71;102025;1300;74011;-23
2022/12/15 13:23:18;;;;;;;6.50;4.80;;;;;;;2.04;82.47;98297.84;102304;1294;62617;-23
2022/12/15 13:25:52;;;;;;;10.10;5.40;;;;;;;2.49;82.33;98305.98;102098;1299;61638;-23
2022/12/15 13:28:37;;;;;;;8.30;5.80;;;;;;;3.01;80.35;98307.48;102221;1299;75445;-23
2022/12/15 13:31:17;;;;;;;8.10;5.70;;;;;;;2.99;79.57;98315.13;102136;1299;76816;-24
2022/12/15 13:33:48;;;;;;;8.90;6.00;;;;;;;2.74;79.74;98317.35;102323;1300;74963;-25
2022/12/15 13:36:37;;;;;;;10.20;7.00;;;;;;;2.47;80.44;98314.71;102170;1294;62348;-25
2022/12/15 13:39:27;;;;;;;9.40;6.60;;;;;;;2.22;81.30;98318.73;102217;1301;62837;-24
2022/12/15 13:41:54;;;;;;;7.50;5.10;;;;;;;2.04;82.01;98325.23;102180;1301;75363;-25
2022/12/15 13:44:50;;;;;;;8.10;5.50;;;;;;;2.62;81.57;98326.45;102213;1301;77226;-22
2022/12/15 13:47:17;;;;;;;9.20;6.30;;;;;;;3.12;79.93;98328.38;102069;1297;75234;-22
2022/12/15 13:49:59;;;;;;;11.60;5.90;;;;;;;3.10;79.18;98329.91;102161;1300;61562;-22
2022/12/15 13:52:38;;;;;;;10.30;6.50;;;;;;;2.84;79.28;98335.27;102078;1302;61645;-23
2022/12/15 13:55:28;;;;;;;9.00;6.40;;;;;;;2.51;80.07;98338.11;101970;1301;75551;-24
2022/12/15 13:58:01;;;;;;;9.90;7.20;;;;;;;2.27;80.72;98337.10;101869;1297;77004;-23
2022/12/15 14:00:27;;;;;;;11.20;7.20;;;;;;;2.05;81.32;98340.59;101935;1300;74130;-23
2022/12/15 14:03:08;;;;;;;8.50;4.70;;;;;;;1.90;81.90;98340.05;102005;1301;63950;-23
2022/12/15 14:05:36;;;;;;;9.40;5.30;;;;;;;2.42;81.59;98346.00;102091;1303;62719;-23
2022/12/15 14:08:09;;;;;;;9.90;6.40;;;;;;;2.90;79.78;98351.50;102117;1301;76179;-24
2022/12/15 14:10:58;;;;;;;9.30;6.20;;;;;;;2.95;79.19;98357.05;102045;1302;75779;-24
2022/12/15 14:13:37;;;;;;;8.50;6.00;;;;;;;2.70;79.38;98358.17;101952;1304;75359;-23
2022/12/15 14:16:13;;;;;;;12.10;7.30;;;;;;;2.43;79.80;98361.52;102000;1297;62120;-23
2022/12/15 14:18:41;;;;;;;10.20;7.40;;;;;;;2.17;80.54;98370.40;102101;1305;62617;-23
2022/12/15 14:21:22;;;;;;;9.10;7.00;;;;;;;1.95;81.12;98372.14;102096;1303;75477;-23
2022/12/15 14:23:49;;;;;;;8.10;5.20;;;;;;;1.75;82.11;98381.46;102065;1302;75789;-23
2022/12/15 14:26:36;;;;;;;8.50;5.50;;;;;;;2.26;81.80;98382.23;102219;1301;75557;-23
2022/12/15 14:29:04;;;;;;;11.00;7.20;;;;;;;2.70;79.90;98388.73;102218;1300;61787;-24
2022/12/15 14:31:31;;;;;;;8.80;6.10;;;;;;;2.67;79.18;98395.56;101936;1302;61193;-24
2022/12/15 14:34:07;;;;;;;10.10;6.10;;;;;;;2.47;79.32;98401.02;102293;1294;75297;-24
2022/12/15 14:36:34;;;;;;;8.50;6.20;;;;;;;2.22;79.90;98404.02;101976;1297;77206;-24